createdAt,value
2022-09-22T00:03:40.106Z,95
2022-09-22T00:08:39.631Z,95
2022-09-22T00:13:38.922Z,95
2022-09-22T00:18:38.381Z,96
2022-09-22T00:23:38.045Z,96
2022-09-22T00:28:37.486Z,96
2022-09-22T00:33:38.092Z,96
2022-09-22T00:38:35.326Z,96
2022-09-22T00:43:35.195Z,96
2022-09-22T00:48:33.993Z,96
2022-09-22T00:53:34.009Z,96
2022-09-22T00:58:33.198Z,96
2022-09-22T00:59:54.435Z,96
2022-09-22T01:04:53.677Z,95
2022-09-22T01:09:55.016Z,95
2022-09-22T01:14:51.752Z,95
2022-09-22T01:19:51.839Z,95
2022-09-22T01:24:50.703Z,95
2022-09-22T01:34:48.764Z,94
2022-09-22T01:39:47.960Z,94
2022-09-22T01:44:48.500Z,94
2022-09-22T01:49:47.131Z,94
2022-09-22T01:54:46.616Z,94
2022-09-22T01:58:53.330Z,93
2022-09-22T02:03:53.440Z,93
2022-09-22T02:08:52.677Z,93
2022-09-22T02:13:53.180Z,93
2022-09-22T02:18:50.172Z,93
2022-09-22T02:23:50.038Z,93
2022-09-22T02:28:50.161Z,93
2022-09-22T02:38:49.182Z,93
2022-09-22T02:43:48.574Z,93
2022-09-22T02:48:48.602Z,93
2022-09-22T02:53:48.831Z,93
2022-09-22T02:58:46.195Z,93
2022-09-22T03:03:45.866Z,93
2022-09-22T03:08:46.022Z,94
2022-09-22T03:13:45.728Z,94
2022-09-22T03:18:43.868Z,93
2022-09-22T03:23:43.634Z,93
2022-09-22T03:28:43.505Z,94
2022-09-22T03:33:43.207Z,94
2022-09-22T03:38:42.317Z,94
2022-09-22T03:43:41.915Z,94
2022-09-22T03:48:45.747Z,93
2022-09-22T03:54:33.122Z,93
2022-09-22T03:58:41.943Z,93
2022-09-22T04:03:39.515Z,93
2022-09-22T04:08:38.195Z,93
2022-09-22T04:13:39.693Z,94
2022-09-22T04:18:37.616Z,94
2022-09-22T04:23:37.026Z,94
2022-09-22T04:28:35.990Z,94
2022-09-22T04:33:35.231Z,94
2022-09-22T04:38:34.824Z,95
2022-09-22T04:43:34.348Z,95
2022-09-22T04:48:35.478Z,95
2022-09-22T04:53:32.315Z,95
2022-09-22T04:58:32.459Z,95
2022-09-22T04:59:53.335Z,95
2022-09-22T05:04:52.931Z,95
2022-09-22T05:09:51.445Z,95
2022-09-22T05:14:51.175Z,95
2022-09-22T05:19:50.974Z,96
2022-09-22T05:24:50.610Z,96
2022-09-22T05:29:49.436Z,97
2022-09-22T05:34:49.515Z,97
2022-09-22T05:44:48.506Z,97
2022-09-22T05:49:47.151Z,97
2022-09-22T05:54:46.944Z,97
2022-09-22T05:59:06.670Z,97
2022-09-22T06:04:06.326Z,97
2022-09-22T06:09:07.400Z,97
2022-09-22T06:14:04.384Z,97
2022-09-22T06:19:03.974Z,97
2022-09-22T06:24:03.087Z,97
2022-09-22T06:29:02.603Z,97
2022-09-22T06:34:07.558Z,96
2022-09-22T06:39:00.636Z,96
2022-09-22T06:44:01.039Z,95
2022-09-22T06:49:00.139Z,94
2022-09-22T06:53:59.730Z,92
2022-09-22T06:58:17.095Z,90
2022-09-22T07:03:17.705Z,87
2022-09-22T07:08:17.041Z,85
2022-09-22T07:13:18.339Z,81
2022-09-22T07:18:15.954Z,77
2022-09-22T07:23:26.396Z,74
2022-09-22T07:28:16.090Z,71
2022-09-22T07:33:25.351Z,72
2022-09-22T07:38:25.814Z,69
2022-09-22T07:43:25.547Z,69
2022-09-22T07:48:25.795Z,68
2022-09-22T07:53:25.970Z,66
2022-09-22T07:58:25.480Z,66
2022-09-22T07:59:48.593Z,67
2022-09-22T08:04:46.551Z,67
2022-09-22T08:09:45.768Z,67
2022-09-22T08:14:45.112Z,66
2022-09-22T08:19:44.557Z,65
2022-09-22T08:24:43.140Z,64
2022-09-22T08:29:42.699Z,63
2022-09-22T08:34:42.932Z,62
2022-09-22T08:39:42.219Z,61
2022-09-22T08:49:41.216Z,60
2022-09-22T08:54:40.714Z,60
2022-09-22T08:58:46.236Z,60
2022-09-22T09:03:45.819Z,59
2022-09-22T09:08:45.519Z,59
2022-09-22T09:13:45.257Z,60
2022-09-22T09:18:44.370Z,58
2022-09-22T09:28:42.579Z,57
2022-09-22T09:33:42.146Z,56
2022-09-22T09:38:41.233Z,57
2022-09-22T09:43:40.842Z,55
2022-09-22T09:48:39.166Z,56
2022-09-22T09:53:42.146Z,54
2022-09-22T09:58:24.710Z,54
2022-09-22T10:03:24.584Z,52
2022-09-22T10:08:23.805Z,52
2022-09-22T10:13:23.302Z,51
2022-09-22T10:18:22.949Z,49
2022-09-22T10:23:22.660Z,49
2022-09-22T10:28:23.131Z,49
2022-09-22T10:33:20.279Z,48
2022-09-22T10:38:19.880Z,50
2022-09-22T10:43:19.123Z,50
2022-09-22T10:53:17.848Z,48
2022-09-22T10:59:39.519Z,47
2022-09-22T11:04:40.303Z,48
2022-09-22T11:09:37.434Z,47
2022-09-22T11:14:37.519Z,47
2022-09-22T11:19:36.148Z,46
2022-09-22T11:24:36.038Z,46
2022-09-22T11:29:34.262Z,44
2022-09-22T11:34:33.882Z,48
2022-09-22T11:39:33.879Z,44
2022-09-22T11:44:33.377Z,44
2022-09-22T11:49:32.387Z,44
2022-09-22T11:54:31.924Z,44
2022-09-22T11:58:46.698Z,42
2022-09-22T12:03:46.286Z,40
2022-09-22T12:08:46.918Z,43
2022-09-22T12:13:44.074Z,41
2022-09-22T12:18:44.077Z,41
2022-09-22T12:23:47.668Z,42
2022-09-22T12:28:44.489Z,41
2022-09-22T12:33:41.940Z,41
2022-09-22T12:38:41.743Z,43
2022-09-22T12:43:40.096Z,41
2022-09-22T12:48:40.044Z,39
2022-09-22T12:53:44.412Z,41
2022-09-22T12:58:26.501Z,41
2022-09-22T13:03:26.411Z,43
2022-09-22T13:08:25.692Z,39
2022-09-22T13:13:24.975Z,42
2022-09-22T13:18:24.326Z,39
2022-09-22T13:23:24.386Z,38
2022-09-22T13:28:23.376Z,40
2022-09-22T13:33:24.083Z,42
2022-09-22T13:38:21.496Z,37
2022-09-22T13:43:21.203Z,39
2022-09-22T13:48:19.672Z,38
2022-09-22T13:53:20.722Z,39
2022-09-22T13:58:04.974Z,38
2022-09-22T14:03:04.908Z,39
2022-09-22T14:08:17.165Z,38
2022-09-22T14:13:03.029Z,37
2022-09-22T14:18:01.788Z,37
2022-09-22T14:23:00.906Z,37
2022-09-22T14:28:01.171Z,36
2022-09-22T14:33:00.084Z,37
2022-09-22T14:38:15.985Z,39
2022-09-22T14:42:59.111Z,36
2022-09-22T14:47:58.322Z,38
2022-09-22T14:52:57.428Z,38
2022-09-22T14:57:42.812Z,40
2022-09-22T15:02:42.717Z,36
2022-09-22T15:07:42.011Z,36
2022-09-22T15:12:41.249Z,39
2022-09-22T15:17:40.138Z,37
2022-09-22T15:22:39.365Z,38
2022-09-22T15:27:38.352Z,37
2022-09-22T15:32:38.155Z,36
2022-09-22T15:37:36.375Z,36
2022-09-22T15:42:36.426Z,38
2022-09-22T16:24:51.910Z,39
2022-09-22T16:29:51.407Z,39
2022-09-22T16:34:50.836Z,40
2022-09-22T16:39:48.821Z,42
2022-09-22T16:44:48.664Z,41
2022-09-22T16:49:48.099Z,43
2022-09-22T16:54:47.802Z,44
2022-09-22T16:59:07.824Z,46
2022-09-22T17:04:08.382Z,48
2022-09-22T17:09:06.749Z,49
2022-09-22T17:14:12.489Z,50
2022-09-22T17:19:04.432Z,52
2022-09-22T17:24:04.086Z,57
2022-09-22T17:29:03.768Z,58
2022-09-22T17:34:03.602Z,59
2022-09-22T17:39:01.971Z,61
2022-09-22T17:44:01.887Z,62
2022-09-22T17:49:01.264Z,64
2022-09-22T17:54:00.389Z,65
2022-09-22T17:58:56.783Z,67
2022-09-22T18:03:54.344Z,68
2022-09-22T18:08:53.820Z,69
2022-09-22T18:13:53.681Z,72
2022-09-22T18:18:53.152Z,72
2022-09-22T18:23:51.662Z,73
2022-09-22T18:28:51.317Z,74
2022-09-22T18:33:51.165Z,76
2022-09-22T18:38:50.264Z,77
2022-09-22T18:43:48.060Z,77
2022-09-22T18:48:47.874Z,78
2022-09-22T18:53:46.761Z,78
2022-09-22T18:58:46.489Z,79
2022-09-22T19:00:08.480Z,79
2022-09-22T19:05:07.825Z,80
2022-09-22T19:10:07.407Z,81
2022-09-22T19:15:07.166Z,82
2022-09-22T19:20:06.163Z,82
2022-09-22T19:25:05.836Z,83
2022-09-22T19:30:05.429Z,84
2022-09-22T19:35:04.883Z,85
2022-09-22T19:40:05.641Z,85
2022-09-22T19:45:02.547Z,86
2022-09-22T19:50:02.784Z,87
2022-09-22T19:55:02.415Z,87
2022-09-22T19:59:23.142Z,88
2022-09-22T20:04:22.080Z,88
2022-09-22T20:09:21.054Z,89
2022-09-22T20:14:21.269Z,89
2022-09-22T20:19:22.693Z,89
2022-09-22T20:24:19.449Z,89
2022-09-22T20:29:19.482Z,89
2022-09-22T20:34:18.367Z,89
2022-09-22T20:39:17.964Z,89
2022-09-22T20:44:16.208Z,89
2022-09-22T20:49:16.245Z,88
2022-09-22T20:54:15.843Z,88
2022-09-22T20:59:02.302Z,88
2022-09-22T21:04:01.983Z,88
2022-09-22T21:09:01.484Z,87
2022-09-22T21:14:01.135Z,87
2022-09-22T21:18:59.930Z,86
2022-09-22T21:24:00.715Z,85
2022-09-22T21:28:57.758Z,84
2022-09-22T21:33:57.844Z,83
2022-09-22T21:38:56.521Z,82
2022-09-22T21:43:56.430Z,82
2022-09-22T21:48:54.494Z,81
2022-09-22T21:53:54.353Z,81
2022-09-22T21:58:54.131Z,81
2022-09-22T22:00:24.823Z,81
2022-09-22T22:05:24.900Z,81
2022-09-22T22:10:24.393Z,82
2022-09-22T22:15:24.065Z,82
2022-09-22T22:20:21.853Z,82
2022-09-22T22:25:22.445Z,82
2022-09-22T22:30:22.297Z,82
2022-09-22T22:35:21.662Z,83
2022-09-22T22:40:21.816Z,83
2022-09-22T22:45:21.383Z,84
2022-09-22T22:50:22.365Z,85
2022-09-22T22:55:08.890Z,85
2022-09-22T22:59:29.043Z,85
2022-09-22T23:04:28.145Z,86
2022-09-22T23:09:29.228Z,86
2022-09-22T23:14:34.742Z,87
2022-09-22T23:19:26.060Z,87
2022-09-22T23:24:27.396Z,88
2022-09-22T23:29:24.581Z,88
2022-09-22T23:34:24.994Z,89
2022-09-22T23:39:24.104Z,89
2022-09-22T23:44:23.626Z,89
2022-09-22T23:49:23.173Z,89
2022-09-22T23:54:23.421Z,89
2022-09-22T23:58:36.392Z,89
